createdAt,value
2022-07-25T00:00:44.576Z,9.52
2022-07-25T00:01:46.814Z,9.00
2022-07-25T00:02:50.543Z,9.23
2022-07-25T00:03:52.660Z,9.18
2022-07-25T00:04:55.870Z,9.57
2022-07-25T00:05:59.579Z,9.38
2022-07-25T00:07:02.743Z,9.70
2022-07-25T00:08:05.547Z,9.40
2022-07-25T00:09:09.461Z,9.13
2022-07-25T00:10:11.713Z,9.43
2022-07-25T00:11:15.093Z,9.13
2022-07-25T00:12:20.602Z,9.23
2022-07-25T00:13:23.640Z,9.10
2022-07-25T00:14:26.144Z,9.70
2022-07-25T00:15:31.293Z,10.20
2022-07-25T00:16:33.291Z,8.95
2022-07-25T00:17:36.662Z,9.98
2022-07-25T00:18:38.637Z,9.20
2022-07-25T00:19:42.112Z,9.88
2022-07-25T00:20:44.129Z,9.05
2022-07-25T00:21:48.566Z,9.25
2022-07-25T00:22:50.601Z,9.02
2022-07-25T00:23:55.987Z,9.43
2022-07-25T00:24:57.992Z,9.43
2022-07-25T00:26:00.956Z,9.43
2022-07-25T00:27:03.097Z,9.65
2022-07-25T00:28:06.157Z,8.98
2022-07-25T00:29:08.319Z,9.70
2022-07-25T00:30:12.006Z,9.05
2022-07-25T00:31:14.115Z,10.27
2022-07-25T00:32:17.287Z,9.30
2022-07-25T00:33:19.334Z,9.55
2022-07-25T00:34:22.376Z,9.57
2022-07-25T00:35:24.433Z,9.02
2022-07-25T00:36:27.523Z,9.48
2022-07-25T00:37:30.975Z,9.75
2022-07-25T00:38:34.020Z,9.70
2022-07-25T00:39:36.610Z,9.23
2022-07-25T00:40:40.104Z,9.70
2022-07-25T00:41:42.146Z,9.63
2022-07-25T00:42:45.250Z,8.43
2022-07-25T00:43:47.314Z,9.00
2022-07-25T00:44:50.393Z,8.60
2022-07-25T00:45:52.428Z,9.20
2022-07-25T00:46:56.968Z,8.40
2022-07-25T00:47:59.984Z,9.35
2022-07-25T00:49:02.100Z,8.05
2022-07-25T00:50:05.954Z,8.23
2022-07-25T00:51:10.524Z,8.05
2022-07-25T00:52:13.710Z,8.27
2022-07-25T00:53:17.335Z,7.75
2022-07-25T00:54:21.167Z,8.88
2022-07-25T00:55:26.348Z,8.48
2022-07-25T00:56:29.862Z,7.60
2022-07-25T00:57:31.923Z,8.32
2022-07-25T00:58:35.070Z,8.00
2022-07-25T00:59:37.171Z,7.50
2022-07-25T01:00:40.564Z,7.70
2022-07-25T01:01:42.836Z,7.22
2022-07-25T01:02:46.060Z,7.38
2022-07-25T01:03:48.135Z,7.30
2022-07-25T01:04:51.368Z,7.40
2022-07-25T01:05:54.040Z,7.10
2022-07-25T01:06:57.134Z,7.57
2022-07-25T01:08:00.209Z,7.47
2022-07-25T01:09:04.293Z,7.22
2022-07-25T01:10:08.674Z,7.05
2022-07-25T01:11:10.976Z,7.43
2022-07-25T01:12:14.068Z,6.95
2022-07-25T01:13:18.113Z,6.88
2022-07-25T01:14:22.980Z,6.38
2022-07-25T01:15:26.792Z,7.25
2022-07-25T01:16:28.906Z,6.70
2022-07-25T01:17:32.004Z,6.93
2022-07-25T01:18:34.649Z,7.10
2022-07-25T01:19:37.764Z,6.78
2022-07-25T01:20:41.173Z,6.80
2022-07-25T01:21:44.176Z,7.18
2022-07-25T01:22:46.645Z,6.80
2022-07-25T01:23:49.674Z,6.97
2022-07-25T01:24:51.681Z,6.20
2022-07-25T01:25:54.945Z,6.43
2022-07-25T01:26:57.041Z,6.63
2022-07-25T01:28:00.051Z,6.35
2022-07-25T01:29:02.191Z,6.75
2022-07-25T01:30:07.062Z,6.22
2022-07-25T01:31:09.199Z,6.22
2022-07-25T01:32:13.460Z,6.30
2022-07-25T01:33:16.427Z,6.25
2022-07-25T01:34:19.414Z,6.15
2022-07-25T01:35:21.508Z,5.97
2022-07-25T01:36:26.745Z,5.95
2022-07-25T01:37:28.836Z,5.72
2022-07-25T01:38:31.808Z,5.70
2022-07-25T01:39:33.878Z,6.18
2022-07-25T01:40:37.196Z,5.63
2022-07-25T01:41:39.275Z,5.93
2022-07-25T01:42:42.547Z,5.65
2022-07-25T01:43:44.540Z,5.30
2022-07-25T01:44:47.555Z,5.90
2022-07-25T01:45:50.277Z,5.05
2022-07-25T01:46:53.605Z,5.53
2022-07-25T01:47:55.683Z,5.78
2022-07-25T01:48:58.829Z,5.50
2022-07-25T01:50:00.938Z,5.10
2022-07-25T01:51:03.964Z,5.57
2022-07-25T01:52:07.629Z,5.53
2022-07-25T01:53:10.579Z,5.20
2022-07-25T01:54:12.688Z,5.43
2022-07-25T01:55:15.830Z,5.55
2022-07-25T01:56:17.967Z,5.70
2022-07-25T01:57:30.721Z,5.18
2022-07-25T01:58:34.274Z,5.57
2022-07-25T01:59:38.593Z,5.90
2022-07-25T02:00:42.594Z,5.47
2022-07-25T02:01:45.365Z,5.53
2022-07-25T02:02:48.703Z,5.60
2022-07-25T02:03:50.855Z,5.45
2022-07-25T02:04:54.271Z,5.43
2022-07-25T02:05:57.093Z,5.78
2022-07-25T02:07:00.187Z,5.10
2022-07-25T02:08:03.882Z,5.47
2022-07-25T02:09:06.866Z,5.90
2022-07-25T02:10:09.577Z,5.80
2022-07-25T02:11:12.634Z,5.75
2022-07-25T02:12:14.700Z,5.53
2022-07-25T02:13:17.679Z,5.05
2022-07-25T02:14:19.734Z,5.40
2022-07-25T02:15:22.749Z,4.93
2022-07-25T02:16:28.732Z,5.72
2022-07-25T02:17:32.375Z,5.53
2022-07-25T02:18:34.519Z,5.38
2022-07-25T02:19:37.697Z,4.75
2022-07-25T02:20:39.749Z,5.20
2022-07-25T02:21:44.014Z,5.55
2022-07-25T02:22:46.049Z,5.32
2022-07-25T02:23:50.471Z,5.10
2022-07-25T02:24:52.475Z,4.88
2022-07-25T02:25:55.502Z,5.13
2022-07-25T02:26:57.838Z,4.97
2022-07-25T02:28:01.635Z,4.80
2022-07-25T02:29:03.739Z,4.95
2022-07-25T02:30:08.099Z,4.80
2022-07-25T02:31:10.539Z,4.97
2022-07-25T02:32:13.627Z,5.15
2022-07-25T02:33:15.625Z,5.10
2022-07-25T02:34:18.716Z,5.00
2022-07-25T02:35:21.078Z,5.00
2022-07-25T02:36:24.073Z,4.70
2022-07-25T02:37:26.164Z,4.82
2022-07-25T02:38:29.142Z,4.82
2022-07-25T02:39:32.589Z,4.50
2022-07-25T02:40:35.604Z,5.00
2022-07-25T02:41:37.713Z,4.90
2022-07-25T02:42:40.923Z,4.35
2022-07-25T02:43:43.059Z,4.93
2022-07-25T02:44:46.151Z,4.70
2022-07-25T02:45:49.229Z,4.80
2022-07-25T02:46:52.350Z,4.90
2022-07-25T02:47:54.416Z,5.25
2022-07-25T02:48:57.678Z,5.30
2022-07-25T02:49:59.810Z,5.18
2022-07-25T02:51:02.913Z,4.93
2022-07-25T02:52:05.292Z,5.15
2022-07-25T02:53:08.296Z,5.00
2022-07-25T02:54:10.775Z,5.00
2022-07-25T02:55:15.479Z,4.82
2022-07-25T02:56:17.925Z,4.80
2022-07-25T02:57:24.170Z,4.75
2022-07-25T02:58:26.240Z,4.88
2022-07-25T02:59:32.265Z,4.65
2022-07-25T03:00:34.842Z,4.70
2022-07-25T03:01:38.046Z,4.80
2022-07-25T03:02:40.133Z,4.55
2022-07-25T03:03:43.223Z,4.38
2022-07-25T03:04:45.303Z,4.47
2022-07-25T03:05:48.372Z,4.38
2022-07-25T03:06:50.429Z,4.60
2022-07-25T03:07:53.452Z,4.45
2022-07-25T03:08:55.459Z,4.45
2022-07-25T03:09:58.547Z,4.97
2022-07-25T03:11:01.939Z,4.80
2022-07-25T03:12:05.541Z,4.47
2022-07-25T03:13:07.537Z,4.18
2022-07-25T03:14:10.748Z,4.43
2022-07-25T03:15:13.844Z,4.63
2022-07-25T03:16:16.957Z,4.45
2022-07-25T03:17:19.042Z,4.22
2022-07-25T03:18:22.043Z,4.50
2022-07-25T03:19:24.088Z,4.90
2022-07-25T03:20:27.321Z,4.60
2022-07-25T03:21:29.364Z,4.60
2022-07-25T03:22:32.550Z,4.60
2022-07-25T03:23:34.604Z,4.60
2022-07-25T03:24:37.700Z,5.15
2022-07-25T03:25:39.781Z,4.65
2022-07-25T03:26:44.174Z,4.80
2022-07-25T03:27:46.257Z,4.47
2022-07-25T03:28:49.234Z,4.55
2022-07-25T03:29:51.279Z,4.53
2022-07-25T03:30:54.314Z,4.50
2022-07-25T03:31:56.449Z,4.40
2022-07-25T03:32:59.643Z,5.10
2022-07-25T03:34:01.639Z,4.38
2022-07-25T03:35:05.167Z,4.55
2022-07-25T03:36:07.922Z,4.78
2022-07-25T03:37:10.971Z,4.55
2022-07-25T03:38:13.012Z,4.50
2022-07-25T03:39:16.103Z,4.72
2022-07-25T03:40:18.224Z,4.70
2022-07-25T03:41:21.241Z,4.57
2022-07-25T03:42:26.734Z,4.57
2022-07-25T03:43:31.691Z,4.45
2022-07-25T03:44:33.720Z,4.30
2022-07-25T03:45:36.960Z,4.70
2022-07-25T03:46:39.033Z,4.43
2022-07-25T03:47:42.075Z,4.53
2022-07-25T03:48:44.113Z,4.30
2022-07-25T03:49:47.159Z,4.32
2022-07-25T03:50:49.248Z,4.45
2022-07-25T03:51:52.249Z,4.28
2022-07-25T03:52:54.308Z,4.50
2022-07-25T03:54:03.271Z,4.72
2022-07-25T03:55:07.679Z,4.10
2022-07-25T03:56:09.713Z,4.22
2022-07-25T03:57:12.823Z,4.07
2022-07-25T03:58:16.219Z,4.00
2022-07-25T03:59:21.485Z,4.35
2022-07-25T04:00:23.516Z,5.07
2022-07-25T04:01:26.932Z,4.25
2022-07-25T04:02:29.204Z,4.10
2022-07-25T04:03:33.055Z,4.07
2022-07-25T04:04:36.111Z,4.45
2022-07-25T04:05:38.169Z,4.40
2022-07-25T04:06:42.141Z,4.32
2022-07-25T04:07:44.188Z,4.20
2022-07-25T04:08:47.487Z,4.40
2022-07-25T04:09:50.656Z,4.32
2022-07-25T04:10:52.699Z,3.70
2022-07-25T04:11:55.814Z,4.22
2022-07-25T04:12:57.852Z,4.10
2022-07-25T04:14:02.915Z,4.50
2022-07-25T04:15:07.043Z,4.07
2022-07-25T04:16:13.006Z,4.15
2022-07-25T04:17:19.358Z,4.20
2022-07-25T04:18:28.625Z,4.30
2022-07-25T04:19:31.967Z,4.30
2022-07-25T04:20:37.449Z,4.28
2022-07-25T04:21:40.881Z,4.35
2022-07-25T04:22:46.715Z,4.22
2022-07-25T04:23:50.935Z,4.45
2022-07-25T04:24:53.078Z,4.07
2022-07-25T04:25:56.120Z,3.88
2022-07-25T04:26:58.189Z,4.13
2022-07-25T04:28:01.285Z,3.97
2022-07-25T04:29:05.765Z,4.03
2022-07-25T04:30:09.214Z,4.38
2022-07-25T04:31:12.310Z,3.83
2022-07-25T04:32:14.828Z,4.18
2022-07-25T04:33:18.813Z,4.00
2022-07-25T04:34:21.093Z,4.18
2022-07-25T04:35:24.180Z,4.28
2022-07-25T04:36:27.686Z,4.03
2022-07-25T04:37:29.781Z,3.40
2022-07-25T04:38:32.971Z,4.03
2022-07-25T04:39:34.978Z,4.00
2022-07-25T04:40:38.235Z,4.25
2022-07-25T04:41:40.289Z,4.10
2022-07-25T04:42:43.450Z,3.90
2022-07-25T04:43:48.753Z,3.88
2022-07-25T04:44:53.424Z,4.25
2022-07-25T04:45:55.570Z,3.92
2022-07-25T04:46:58.652Z,4.10
2022-07-25T04:48:01.465Z,4.05
2022-07-25T04:49:04.786Z,3.90
2022-07-25T04:50:08.256Z,3.72
2022-07-25T04:51:11.379Z,3.80
2022-07-25T04:52:13.483Z,3.47
2022-07-25T04:53:17.018Z,3.80
2022-07-25T04:54:19.073Z,3.72
2022-07-25T04:55:22.400Z,3.75
2022-07-25T04:56:25.538Z,3.53
2022-07-25T04:57:27.705Z,3.85
2022-07-25T04:58:32.729Z,3.90
2022-07-25T04:59:35.738Z,3.88
2022-07-25T05:00:39.440Z,4.03
2022-07-25T05:01:42.590Z,3.58
2022-07-25T05:02:44.664Z,3.38
2022-07-25T05:03:49.757Z,3.70
2022-07-25T05:04:53.109Z,3.90
2022-07-25T05:05:56.184Z,3.85
2022-07-25T05:06:59.353Z,3.95
2022-07-25T05:08:02.661Z,3.75
2022-07-25T05:09:04.744Z,3.67
2022-07-25T05:10:08.501Z,3.50
2022-07-25T05:11:10.659Z,3.88
2022-07-25T05:12:13.735Z,3.50
2022-07-25T05:13:16.305Z,3.50
2022-07-25T05:14:19.447Z,3.88
2022-07-25T05:15:23.616Z,4.18
2022-07-25T05:16:28.051Z,3.60
2022-07-25T05:17:30.296Z,3.67
2022-07-25T05:18:34.912Z,3.70
2022-07-25T05:19:37.234Z,4.13
2022-07-25T05:20:40.633Z,3.85
2022-07-25T05:21:42.676Z,3.95
2022-07-25T05:22:45.741Z,3.90
2022-07-25T05:23:47.847Z,3.47
2022-07-25T05:24:50.926Z,3.88
2022-07-25T05:25:53.046Z,3.42
2022-07-25T05:26:56.177Z,3.58
2022-07-25T05:27:58.709Z,3.42
2022-07-25T05:29:01.820Z,3.75
2022-07-25T05:30:05.950Z,3.65
2022-07-25T05:31:09.326Z,3.60
2022-07-25T05:32:12.795Z,3.80
2022-07-25T05:33:15.884Z,3.55
2022-07-25T05:34:18.019Z,3.28
2022-07-25T05:35:21.141Z,3.58
2022-07-25T05:36:24.181Z,3.67
2022-07-25T05:37:26.742Z,3.80
2022-07-25T05:38:30.049Z,3.90
2022-07-25T05:39:32.101Z,3.70
2022-07-25T05:40:35.140Z,3.53
2022-07-25T05:41:37.287Z,3.40
2022-07-25T05:42:40.418Z,3.65
2022-07-25T05:43:46.155Z,3.55
2022-07-25T05:44:49.426Z,3.65
2022-07-25T05:45:51.558Z,3.53
2022-07-25T05:46:54.713Z,3.80
2022-07-25T05:47:59.344Z,3.70
2022-07-25T05:49:01.822Z,4.00
2022-07-25T05:50:05.399Z,3.63
2022-07-25T05:51:07.483Z,3.17
2022-07-25T05:52:13.104Z,3.70
2022-07-25T05:53:15.455Z,3.63
2022-07-25T05:54:18.484Z,3.58
2022-07-25T05:55:21.538Z,3.72
2022-07-25T05:56:23.669Z,3.50
2022-07-25T05:57:26.749Z,3.97
2022-07-25T05:58:30.048Z,3.63
2022-07-25T05:59:33.398Z,3.72
2022-07-25T06:00:36.648Z,3.75
2022-07-25T06:01:38.781Z,3.80
2022-07-25T06:02:42.036Z,3.67
2022-07-25T06:03:45.581Z,4.10
2022-07-25T06:04:48.566Z,4.47
2022-07-25T06:05:50.658Z,4.45
2022-07-25T06:06:53.699Z,4.40
2022-07-25T06:07:56.025Z,3.90
2022-07-25T06:08:59.133Z,3.95
2022-07-25T06:10:01.855Z,4.43
2022-07-25T06:11:06.010Z,4.45
2022-07-25T06:12:11.451Z,4.20
2022-07-25T06:13:13.497Z,3.50
2022-07-25T06:14:17.817Z,3.70
2022-07-25T06:15:26.539Z,4.15
2022-07-25T06:16:29.189Z,4.03
2022-07-25T06:17:32.824Z,3.65
2022-07-25T06:18:34.965Z,3.95
2022-07-25T06:19:39.400Z,3.95
2022-07-25T06:20:41.498Z,3.78
2022-07-25T06:21:44.524Z,3.60
2022-07-25T06:22:46.648Z,4.40
2022-07-25T06:23:49.711Z,4.38
2022-07-25T06:24:52.759Z,4.07
2022-07-25T06:25:54.863Z,4.50
2022-07-25T06:26:57.945Z,4.05
2022-07-25T06:28:01.108Z,4.30
2022-07-25T06:29:04.238Z,4.00
2022-07-25T06:30:18.671Z,3.92
2022-07-25T06:31:23.143Z,3.90
2022-07-25T06:32:25.254Z,4.28
2022-07-25T06:33:28.297Z,4.00
2022-07-25T06:34:31.602Z,3.90
2022-07-25T06:35:35.309Z,4.38
2022-07-25T06:36:38.422Z,3.63
2022-07-25T06:37:40.498Z,4.30
2022-07-25T06:38:43.886Z,3.90
2022-07-25T06:39:46.290Z,4.30
2022-07-25T06:40:49.475Z,4.57
2022-07-25T06:41:51.582Z,4.40
2022-07-25T06:42:54.658Z,4.43
2022-07-25T06:43:56.817Z,4.45
2022-07-25T06:45:00.198Z,3.92
2022-07-25T06:46:02.806Z,4.38
2022-07-25T06:47:06.213Z,4.85
2022-07-25T06:48:09.371Z,4.80
2022-07-25T06:49:12.474Z,4.57
2022-07-25T06:50:18.506Z,4.72
2022-07-25T06:51:25.249Z,4.25
2022-07-25T06:52:28.771Z,3.92
2022-07-25T06:53:30.826Z,3.92
2022-07-25T06:54:34.176Z,4.18
2022-07-25T06:55:37.500Z,3.83
2022-07-25T06:56:39.661Z,4.05
2022-07-25T06:57:43.192Z,4.53
2022-07-25T06:58:46.327Z,4.38
2022-07-25T06:59:48.427Z,4.18
2022-07-25T07:00:51.675Z,3.80
2022-07-25T07:01:53.822Z,4.40
2022-07-25T07:02:59.703Z,4.15
2022-07-25T07:04:01.797Z,3.90
2022-07-25T07:05:05.227Z,3.83
2022-07-25T07:06:09.362Z,4.00
2022-07-25T07:07:13.916Z,4.03
2022-07-25T07:08:15.979Z,4.10
2022-07-25T07:09:19.049Z,4.00
2022-07-25T07:10:22.090Z,4.28
2022-07-25T07:11:25.568Z,3.60
2022-07-25T07:12:27.563Z,4.13
2022-07-25T07:13:31.046Z,4.20
2022-07-25T07:14:33.083Z,4.28
2022-07-25T07:15:36.367Z,4.93
2022-07-25T07:16:42.409Z,4.78
2022-07-25T07:17:44.922Z,4.50
2022-07-25T07:18:49.449Z,4.28
2022-07-25T07:19:51.810Z,4.28
2022-07-25T07:20:55.361Z,4.40
2022-07-25T07:21:57.421Z,3.83
2022-07-25T07:23:03.202Z,4.13
2022-07-25T07:24:05.723Z,4.30
2022-07-25T07:25:28.501Z,4.47
2022-07-25T07:26:31.725Z,3.78
2022-07-25T07:27:33.790Z,4.13
2022-07-25T07:28:36.829Z,4.05
2022-07-25T07:29:38.975Z,4.63
2022-07-25T07:32:06.604Z,4.53
2022-07-25T07:33:09.713Z,4.47
2022-07-25T07:34:11.809Z,4.13
2022-07-25T07:35:19.409Z,5.38
2022-07-25T07:36:23.314Z,6.13
2022-07-25T07:37:25.439Z,6.15
2022-07-25T07:38:29.827Z,4.55
2022-07-25T07:39:32.045Z,4.90
2022-07-25T07:40:35.063Z,4.15
2022-07-25T07:41:37.157Z,4.80
2022-07-25T07:42:41.985Z,4.78
2022-07-25T07:43:45.042Z,4.40
2022-07-25T07:44:47.033Z,5.00
2022-07-25T07:45:50.059Z,4.40
2022-07-25T07:46:52.062Z,4.65
2022-07-25T07:47:55.879Z,4.43
2022-07-25T07:48:58.062Z,4.28
2022-07-25T07:50:01.244Z,4.85
2022-07-25T07:51:04.711Z,4.70
2022-07-25T07:52:06.882Z,4.55
2022-07-25T07:53:10.064Z,4.78
2022-07-25T07:54:32.153Z,4.72
2022-07-25T07:55:48.511Z,5.75
2022-07-25T07:56:51.584Z,4.97
2022-07-25T07:57:53.686Z,4.93
2022-07-25T07:58:56.691Z,5.70
2022-07-25T07:59:58.684Z,4.97
2022-07-25T08:01:01.718Z,4.90
2022-07-25T08:02:03.869Z,4.90
2022-07-25T08:03:08.765Z,4.90
2022-07-25T08:04:11.851Z,4.85
2022-07-25T08:05:13.967Z,4.90
2022-07-25T08:06:17.010Z,4.55
2022-07-25T08:07:20.045Z,4.82
2022-07-25T08:08:26.647Z,4.82
2022-07-25T08:09:33.584Z,4.82
2022-07-25T08:10:38.507Z,4.80
2022-07-25T08:11:41.551Z,4.75
2022-07-25T08:12:43.658Z,4.68
2022-07-25T08:13:46.666Z,4.82
2022-07-25T08:14:48.730Z,4.88
2022-07-25T08:15:54.350Z,4.80
2022-07-25T08:16:57.437Z,4.70
2022-07-25T08:18:00.446Z,4.90
2022-07-25T08:19:03.480Z,4.70
2022-07-25T08:20:27.953Z,4.63
2022-07-25T08:21:31.462Z,4.88
2022-07-25T08:22:37.255Z,4.60
2022-07-25T08:23:40.351Z,4.85
2022-07-25T08:24:43.754Z,4.43
2022-07-25T08:25:47.212Z,4.80
2022-07-25T08:26:49.236Z,4.90
2022-07-25T08:27:53.318Z,4.78
2022-07-25T08:29:17.446Z,5.80
2022-07-25T08:30:19.427Z,5.03
2022-07-25T08:31:22.625Z,5.20
2022-07-25T08:32:24.704Z,4.70
2022-07-25T08:33:28.386Z,5.20
2022-07-25T08:34:30.397Z,5.10
2022-07-25T08:35:35.089Z,4.90
2022-07-25T08:36:37.146Z,5.05
2022-07-25T08:37:40.178Z,5.40
2022-07-25T08:38:43.264Z,4.72
2022-07-25T08:39:46.725Z,5.22
2022-07-25T08:40:50.793Z,4.85
2022-07-25T08:41:53.016Z,4.85
2022-07-25T08:42:58.453Z,5.30
2022-07-25T08:44:03.982Z,5.20
2022-07-25T08:45:08.271Z,5.63
2022-07-25T08:46:12.391Z,5.80
2022-07-25T08:47:15.841Z,5.95
2022-07-25T08:48:20.867Z,5.50
2022-07-25T08:49:23.449Z,4.78
2022-07-25T08:50:28.753Z,4.70
2022-07-25T08:51:33.302Z,4.45
2022-07-25T08:52:37.661Z,4.88
2022-07-25T08:53:41.200Z,5.00
2022-07-25T08:54:45.392Z,5.20
2022-07-25T08:55:49.788Z,6.03
2022-07-25T08:56:52.787Z,5.75
2022-07-25T08:57:54.921Z,6.82
2022-07-25T08:58:59.002Z,6.03
2022-07-25T09:00:02.558Z,5.25
2022-07-25T09:01:05.822Z,5.05
2022-07-25T09:02:10.776Z,4.97
2022-07-25T09:03:14.538Z,5.18
2022-07-25T09:04:18.384Z,5.00
2022-07-25T09:05:22.246Z,5.50
2022-07-25T09:06:25.368Z,5.03
2022-07-25T09:07:31.644Z,5.00
2022-07-25T09:08:34.658Z,4.88
2022-07-25T09:09:38.861Z,5.90
2022-07-25T09:10:47.271Z,5.32
2022-07-25T09:11:51.642Z,6.00
2022-07-25T09:12:55.412Z,5.30
2022-07-25T09:14:03.072Z,5.13
2022-07-25T09:15:10.002Z,5.13
2022-07-25T09:16:14.326Z,5.18
2022-07-25T09:17:22.376Z,4.63
2022-07-25T09:18:27.338Z,5.20
2022-07-25T09:19:31.600Z,4.85
2022-07-25T09:20:38.827Z,5.15
2022-07-25T09:21:43.249Z,5.13
2022-07-25T09:22:47.321Z,4.80
2022-07-25T09:23:49.334Z,4.75
2022-07-25T09:24:52.389Z,4.93
2022-07-25T09:26:03.225Z,5.15
2022-07-25T09:27:12.709Z,5.22
2022-07-25T09:28:17.669Z,5.18
2022-07-25T09:29:23.287Z,5.18
2022-07-25T09:30:25.358Z,5.20
2022-07-25T09:31:34.998Z,5.35
2022-07-25T09:32:38.127Z,5.57
2022-07-25T09:33:47.569Z,4.80
2022-07-25T09:34:51.718Z,5.18
2022-07-25T09:35:55.075Z,5.07
2022-07-25T09:36:58.298Z,5.43
2022-07-25T09:38:11.653Z,5.82
2022-07-25T09:39:13.769Z,5.07
2022-07-25T09:40:17.001Z,5.30
2022-07-25T09:41:19.865Z,5.07
2022-07-25T09:42:26.659Z,5.78
2022-07-25T09:43:39.644Z,5.25
2022-07-25T09:44:41.789Z,5.30
2022-07-25T09:45:50.471Z,5.43
2022-07-25T09:46:52.927Z,5.50
2022-07-25T09:47:57.848Z,5.10
2022-07-25T09:49:00.992Z,5.10
2022-07-25T09:50:05.098Z,5.63
2022-07-25T09:51:07.470Z,5.22
2022-07-25T09:52:11.002Z,4.82
2022-07-25T09:53:14.191Z,4.93
2022-07-25T09:54:16.337Z,4.88
2022-07-25T09:55:20.488Z,5.18
2022-07-25T09:56:23.513Z,5.80
2022-07-25T09:57:27.778Z,5.32
2022-07-25T09:58:31.575Z,5.38
2022-07-25T09:59:34.566Z,5.35
2022-07-25T10:00:41.139Z,5.80
2022-07-25T10:01:51.391Z,5.40
2022-07-25T10:04:15.545Z,5.63
2022-07-25T10:05:28.894Z,5.30
2022-07-25T10:06:39.971Z,5.38
2022-07-25T10:07:45.720Z,5.20
2022-07-25T10:08:50.417Z,5.32
2022-07-25T10:09:55.810Z,5.47
2022-07-25T10:10:58.914Z,5.47
2022-07-25T10:12:06.033Z,5.57
2022-07-25T10:13:15.191Z,6.35
2022-07-25T10:14:19.153Z,5.25
2022-07-25T10:15:21.269Z,5.30
2022-07-25T10:16:25.647Z,6.20
2022-07-25T10:17:28.825Z,6.25
2022-07-25T10:18:32.611Z,5.70
2022-07-25T10:19:47.388Z,6.40
2022-07-25T10:20:54.839Z,5.40
2022-07-25T10:21:56.829Z,5.70
2022-07-25T10:22:59.924Z,5.72
2022-07-25T10:24:05.426Z,5.50
2022-07-25T10:25:11.798Z,5.32
2022-07-25T10:26:16.438Z,5.30
2022-07-25T10:27:24.447Z,5.70
2022-07-25T10:28:41.573Z,5.30
2022-07-25T10:29:44.630Z,5.47
2022-07-25T10:30:46.902Z,5.40
2022-07-25T10:31:51.811Z,5.28
2022-07-25T10:32:58.374Z,5.50
2022-07-25T10:34:06.863Z,5.63
2022-07-25T10:35:16.606Z,5.32
2022-07-25T10:36:20.733Z,5.50
2022-07-25T10:37:28.079Z,5.30
2022-07-25T10:38:31.276Z,5.80
2022-07-25T10:39:39.693Z,5.20
2022-07-25T10:40:43.432Z,5.50
2022-07-25T10:41:53.131Z,5.68
2022-07-25T10:43:02.971Z,6.18
2022-07-25T10:44:13.992Z,5.28
2022-07-25T10:45:18.093Z,6.07
2022-07-25T10:46:23.672Z,6.38
2022-07-25T10:47:28.209Z,5.30
2022-07-25T10:48:33.245Z,5.65
2022-07-25T10:49:37.626Z,5.57
2022-07-25T10:50:56.256Z,5.40
2022-07-25T10:52:01.436Z,5.72
2022-07-25T10:53:09.291Z,5.65
2022-07-25T10:54:18.053Z,5.45
2022-07-25T10:55:23.823Z,5.38
2022-07-25T10:56:28.702Z,5.47
2022-07-25T10:57:32.161Z,5.55
2022-07-25T10:58:46.925Z,5.35
2022-07-25T10:59:51.372Z,5.35
2022-07-25T11:00:53.939Z,5.70
2022-07-25T11:01:57.507Z,5.60
2022-07-25T11:02:59.667Z,5.35
2022-07-25T11:04:05.929Z,5.07
2022-07-25T11:05:09.920Z,5.40
2022-07-25T11:06:13.699Z,5.60
2022-07-25T11:07:18.641Z,5.53
2022-07-25T11:08:31.044Z,5.45
2022-07-25T11:09:34.311Z,5.55
2022-07-25T11:10:36.459Z,5.38
2022-07-25T11:11:43.226Z,7.13
2022-07-25T11:12:46.303Z,5.18
2022-07-25T11:13:50.187Z,5.20
2022-07-25T11:15:01.224Z,5.00
2022-07-25T11:16:04.026Z,5.53
2022-07-25T11:17:19.784Z,5.50
2022-07-25T11:18:31.497Z,5.32
2022-07-25T11:19:34.582Z,5.85
2022-07-25T11:20:36.621Z,5.43
2022-07-25T11:21:45.583Z,5.10
2022-07-25T11:22:56.016Z,5.20
2022-07-25T11:25:02.152Z,5.32
2022-07-25T11:26:05.905Z,5.20
2022-07-25T11:27:12.405Z,5.53
2022-07-25T11:28:15.998Z,5.68
2022-07-25T11:29:19.783Z,5.65
2022-07-25T11:30:24.309Z,5.93
2022-07-25T11:31:27.876Z,5.95
2022-07-25T11:32:38.725Z,5.53
2022-07-25T11:33:44.616Z,5.30
2022-07-25T11:34:48.983Z,5.80
2022-07-25T11:35:53.489Z,5.60
2022-07-25T11:36:58.480Z,5.45
2022-07-25T11:38:02.415Z,5.43
2022-07-25T11:39:06.030Z,5.50
2022-07-25T11:40:10.232Z,5.75
2022-07-25T11:41:12.500Z,5.57
2022-07-25T11:42:18.000Z,5.28
2022-07-25T11:43:20.914Z,5.45
2022-07-25T11:44:32.081Z,4.97
2022-07-25T11:45:39.400Z,5.88
2022-07-25T11:46:44.032Z,5.68
2022-07-25T11:47:48.014Z,5.72
2022-07-25T11:48:50.129Z,5.53
2022-07-25T11:49:54.816Z,5.70
2022-07-25T11:50:57.557Z,5.53
2022-07-25T11:52:00.926Z,5.40
2022-07-25T11:53:06.094Z,6.18
2022-07-25T11:54:11.063Z,5.40
2022-07-25T11:55:16.557Z,5.50
2022-07-25T11:57:47.218Z,5.57
2022-07-25T11:58:59.011Z,5.50
2022-07-25T12:00:03.547Z,5.65
2022-07-25T12:01:15.252Z,5.55
2022-07-25T12:02:25.954Z,5.68
2022-07-25T12:03:39.218Z,5.95
2022-07-25T12:04:42.460Z,6.60
2022-07-25T12:05:46.150Z,6.00
2022-07-25T12:06:50.856Z,6.38
2022-07-25T12:07:54.813Z,5.70
2022-07-25T12:08:57.889Z,5.95
2022-07-25T12:09:59.957Z,5.63
2022-07-25T12:11:03.010Z,5.57
2022-07-25T12:12:06.549Z,6.07
2022-07-25T12:13:10.200Z,6.07
2022-07-25T12:14:13.712Z,5.78
2022-07-25T12:15:18.713Z,5.30
2022-07-25T12:16:23.121Z,5.40
2022-07-25T12:17:26.202Z,5.18
2022-07-25T12:18:29.571Z,5.40
2022-07-25T12:19:33.577Z,5.47
2022-07-25T12:20:38.872Z,5.28
2022-07-25T12:21:41.956Z,5.55
2022-07-25T12:22:44.131Z,5.13
2022-07-25T12:23:47.157Z,5.22
2022-07-25T12:24:49.333Z,5.28
2022-07-25T12:25:52.453Z,4.88
2022-07-25T12:26:55.864Z,5.22
2022-07-25T12:27:58.896Z,5.47
2022-07-25T12:29:01.994Z,5.32
2022-07-25T12:30:04.956Z,5.18
2022-07-25T12:31:08.500Z,5.20
2022-07-25T12:32:11.988Z,4.88
2022-07-25T12:33:17.261Z,5.07
2022-07-25T12:34:20.270Z,5.35
2022-07-25T12:35:23.856Z,5.68
2022-07-25T12:36:26.957Z,5.43
2022-07-25T12:37:29.057Z,5.57
2022-07-25T12:38:32.456Z,5.55
2022-07-25T12:39:34.472Z,5.30
2022-07-25T12:40:37.462Z,5.10
2022-07-25T12:41:42.678Z,5.20
2022-07-25T12:42:45.659Z,5.22
2022-07-25T12:43:48.653Z,5.82
2022-07-25T12:44:50.700Z,4.85
2022-07-25T12:45:53.899Z,5.47
2022-07-25T12:46:56.099Z,5.45
2022-07-25T12:48:00.573Z,5.35
2022-07-25T12:49:04.174Z,5.50
2022-07-25T12:50:08.253Z,4.85
2022-07-25T12:51:11.289Z,4.93
2022-07-25T12:52:13.510Z,5.13
2022-07-25T12:53:16.671Z,5.30
2022-07-25T12:54:22.215Z,5.65
2022-07-25T12:55:25.842Z,5.63
2022-07-25T12:56:28.954Z,5.65
2022-07-25T12:57:31.080Z,5.30
2022-07-25T12:58:34.116Z,5.40
2022-07-25T12:59:36.130Z,6.07
2022-07-25T13:00:39.215Z,5.32
2022-07-25T13:01:41.305Z,5.47
2022-07-25T13:02:44.572Z,5.28
2022-07-25T13:03:49.012Z,5.63
2022-07-25T13:04:51.008Z,5.72
2022-07-25T13:05:54.025Z,5.60
2022-07-25T13:06:56.889Z,5.28
2022-07-25T13:07:59.938Z,5.45
2022-07-25T13:09:02.033Z,5.47
2022-07-25T13:10:06.430Z,5.20
2022-07-25T13:11:09.469Z,5.60
2022-07-25T13:12:16.355Z,5.20
2022-07-25T13:13:19.824Z,5.63
2022-07-25T13:14:22.119Z,5.22
2022-07-25T13:15:28.189Z,5.30
2022-07-25T13:16:31.308Z,5.40
2022-07-25T13:17:33.796Z,5.38
2022-07-25T13:18:36.829Z,5.82
2022-07-25T13:19:40.404Z,5.85
2022-07-25T13:20:43.426Z,5.20
2022-07-25T13:21:45.495Z,5.53
2022-07-25T13:22:48.732Z,5.47
2022-07-25T13:23:51.740Z,5.50
2022-07-25T13:24:54.270Z,5.53
2022-07-25T13:25:57.346Z,5.35
2022-07-25T13:27:00.360Z,5.43
2022-07-25T13:28:04.164Z,5.13
2022-07-25T13:29:13.277Z,5.18
2022-07-25T13:30:16.602Z,5.15
2022-07-25T13:31:20.312Z,5.38
2022-07-25T13:32:26.482Z,5.45
2022-07-25T13:33:29.646Z,5.80
2022-07-25T13:34:31.676Z,5.28
2022-07-25T13:35:39.147Z,5.38
2022-07-25T13:36:42.786Z,5.22
2022-07-25T13:37:45.968Z,5.18
2022-07-25T13:38:47.985Z,5.13
2022-07-25T13:39:51.322Z,5.65
2022-07-25T13:40:58.735Z,5.15
2022-07-25T13:42:01.068Z,5.40
2022-07-25T13:43:04.137Z,5.53
2022-07-25T13:44:07.305Z,5.30
2022-07-25T13:45:11.325Z,5.25
2022-07-25T13:46:13.538Z,5.63
2022-07-25T13:47:16.758Z,5.50
2022-07-25T13:48:29.426Z,5.65
2022-07-25T13:49:33.511Z,5.25
2022-07-25T13:50:37.994Z,5.32
2022-07-25T13:51:41.136Z,5.53
2022-07-25T13:52:43.165Z,5.53
2022-07-25T13:53:46.167Z,5.72
2022-07-25T13:54:48.201Z,5.43
2022-07-25T13:55:51.890Z,5.22
2022-07-25T13:56:54.259Z,5.95
2022-07-25T13:57:57.483Z,5.78
2022-07-25T13:58:59.570Z,5.53
2022-07-25T14:00:02.858Z,6.20
2022-07-25T14:01:07.469Z,5.68
2022-07-25T14:02:10.550Z,5.90
2022-07-25T14:03:12.607Z,6.38
2022-07-25T14:04:15.596Z,7.30
2022-07-25T14:05:17.804Z,6.60
2022-07-25T14:06:22.230Z,6.90
2022-07-25T14:07:25.266Z,7.50
2022-07-25T14:08:28.331Z,6.90
2022-07-25T14:09:31.313Z,6.43
2022-07-25T14:10:33.827Z,6.35
2022-07-25T14:11:36.817Z,6.07
2022-07-25T14:12:39.737Z,6.05
2022-07-25T14:13:43.599Z,6.10
2022-07-25T14:14:46.669Z,6.03
2022-07-25T14:15:49.642Z,6.43